Elfrida, AZ

9:37 AM MST on August 22, 2014 (GMT -0700)
(High Lonesome Ranch) | Change Station
CLOSE
Current Station
Personal Weather Station
Location: Gleeson, AZ
Elevation: 5032 ft
Nearby Weather Stations

Elev 5032 ft 31.72 °N, 109.88 °W | Updated 4 minutes ago

Clear
Clear
72.5 °F
Feels Like 76 °F
N
3.0
Wind Variable Wind from SW
Gusts 4.0 mph

Today
High -- | Low -- °F
--% Chance of Precip.
Yesterday
High -- | Low -- °F
Precip. -- in
5:48 AM 6:55 PM
Waning Crescent, 7% visible
Pressure 29.98 in
Visibility 10.0 miles
Clouds Clear
Heat Index 76 °F
Dew Point 58 °F
Humidity 60%
Rainfall 0.00 in
Snow Depth Not available.
UV 5 out of 12
Pollen 4.70 out of 12
Air Quality Not available.
Flu Activity Not available.
METAR KDUG 221556Z AUTO 00000KT 10SM CLR 23/16 A3015 RMK AO2 SLP150 T02280161

More Conditions Fewer Conditions

Pressure 29.98 in
Visibility 10.0 miles
Clouds Clear
Heat Index 76 °F
Dew Point 58 °F
Humidity 60%
Rainfall 0.00 in
Snow Depth Not available.
UV 5 out of 12
Pollen 4.70 out of 12
Air Quality Not available.
Flu Activity Not available.
METAR KDUG 221556Z AUTO 00000KT 10SM CLR 23/16 A3015 RMK AO2 SLP150 T02280161

More Conditions Fewer Conditions

10-Day Weather Forecast

Almanac

Astronomy

Aug. 22, 2014 Rise Set
Actual Time 5:48 AM MST 6:55 PM MST
Civil Twilight 5:23 AM MST 7:20 PM MST
Nautical Twilight 4:53 AM MST 7:50 PM MST
Astronomical Twilight 4:22 AM MST 8:21 PM MST
Moon 3:19 AM MST 5:02 PM MST
Length of Visible Light 13h 56m
Length of Day
13h 06m
Tomorrow will be 1m 46s shorter.
Waning Crescent, 7% of the Moon is Illuminated
Today
Waning Crescent
Aug 25
New
Sep 2
First Quarter
Sep 8
Full
Sep 15
Last Quarter

Today's Extremes

State Highs State Lows

Community

WunderPhotos

Upload Photos

1,746,195 photos uploaded!

Nearby

Snow Depth

Station Depth Elevation
Wildcat 0 in 7850 ft
Beaver Head 17 in 7990 ft
Workman Creek 1 in 6900 ft
Promontory 0 in 7930 ft
Mormon Mountain 0 in 7500 ft

Earthquake Activity

City Distance Mag. Time & Date
Lordsburg, New Mexico 73 miles 3.1 9:13 PM MST
2014-08-15
Minimum magnitude displayed is 2.5.

Coastal Water Temperatures

Place Temperature
No Stations Reporting

Nearby Weather Stations